Time;durP1;ratioP1;P1;durP2;ratioP2;P2;SDS_P1;SDS_P2;PMS_P1;PMS_P2;Temp;Humidity;BMP_temperature;BMP_pressure;BME280_temperature;BME280_humidity;BME280_pressure;Samples;Min_cycle;Max_cycle;Signal;HPM_P1;HPM_P2
2023/11/20 00:00:15;;;;;;;;;;;;;;;9.25;97.62;100180.81;4220301;28;19982;-70
2023/11/20 00:02:17;;;;;;;;;;;;;;;9.25;97.62;100176.28;4221600;28;19974;-70
2023/11/20 00:04:20;;;;;;;;;;;;;;;9.27;97.77;100179.63;4222827;28;19967;-70
2023/11/20 00:06:22;;;;;;;;;;;;;;;9.27;97.54;100173.41;4219619;28;20440;-70
2023/11/20 00:08:24;;;;;;;;;;;;;;;9.28;97.71;100167.81;4222527;28;19931;-70
2023/11/20 00:10:26;;;;;;;;;;;;;;;9.29;97.96;100172.19;4222329;28;20449;-70
2023/11/20 00:12:28;;;;;;;;;;;;;;;9.29;97.90;100179.44;4222913;28;20462;-70
2023/11/20 00:14:29;;;;;;;;;;;;;;;9.29;97.84;100168.66;4221337;28;20018;-70
2023/11/20 00:16:31;;;;;;;;;;;;;;;9.29;97.84;100161.41;4222684;28;19924;-70
2023/11/20 00:18:33;;;;;;;;;;;;;;;9.30;98.12;100170.34;4221886;28;19963;-70
2023/11/20 00:20:38;;;;;;;;;;;;;;;9.28;98.10;100164.28;4222629;28;20014;-70
2023/11/20 00:22:40;;;;;;;;;;;;;;;9.28;97.80;100157.03;4221580;28;19970;-71
2023/11/20 00:24:41;;;;;;;;;;;;;;;9.29;98.12;100158.69;4222664;28;19987;-70
2023/11/20 00:26:43;;;;;;;;;;;;;;;9.29;97.86;100156.00;4221465;27;19993;-70
2023/11/20 00:28:45;;;;;;;;;;;;;;;9.28;97.85;100157.03;4222564;28;19970;-72
2023/11/20 00:30:47;;;;;;;;;;;;;;;9.27;97.95;100160.75;4221406;28;19986;-70
2023/11/20 00:32:49;;;;;;;;;;;;;;;9.28;98.01;100158.88;4221132;28;20019;-70
2023/11/20 00:34:51;;;;;;;;;;;;;;;9.29;98.17;100168.66;4221905;28;20027;-70
2023/11/20 00:36:54;;;;;;;;;;;;;;;9.27;98.12;100155.34;4221978;28;20428;-70
2023/11/20 00:38:57;;;;;;;;;;;;;;;9.27;98.22;100159.91;4217598;28;20011;-71
2023/11/20 00:40:59;;;;;;;;;;;;;;;9.24;98.09;100162.97;4220400;28;19963;-71
2023/11/20 00:43:01;;;;;;;;;;;;;;;9.26;98.13;100164.44;4222048;28;20057;-71
2023/11/20 00:45:03;;;;;;;;;;;;;;;9.26;98.21;100158.25;4222236;28;19962;-71
2023/11/20 00:47:06;;;;;;;;;;;;;;;9.26;98.21;100164.44;4219131;28;20009;-71
2023/11/20 00:49:08;;;;;;;;;;;;;;;9.28;97.90;100158.88;4204478;28;20417;-71
2023/11/20 00:51:10;;;;;;;;;;;;;;;9.27;97.96;100149.16;4228923;27;19967;-71
2023/11/20 00:53:14;;;;;;;;;;;;;;;9.27;97.86;100151.84;4220961;28;20019;-71
2023/11/20 00:55:16;;;;;;;;;;;;;;;9.26;97.69;100145.59;4238143;27;20010;-71
2023/11/20 00:57:18;;;;;;;;;;;;;;;9.25;97.93;100141.25;4221707;28;20018;-71
2023/11/20 00:59:19;;;;;;;;;;;;;;;9.26;98.01;100144.75;4222697;28;20027;-71
2023/11/20 01:01:21;;;;;;;;;;;;;;;9.26;98.08;100147.47;4220686;28;19951;-71
2023/11/20 01:03:24;;;;;;;;;;;;;;;9.27;97.95;100146.44;4220827;27;20026;-71
2023/11/20 01:05:27;;;;;;;;;;;;;;;9.28;97.84;100148.09;4219457;28;19924;-70
2023/11/20 01:07:29;;;;;;;;;;;;;;;9.28;97.76;100145.41;4222475;28;19982;-72
2023/11/20 01:09:32;;;;;;;;;;;;;;;9.27;98.02;100132.97;4221336;27;19971;-71
2023/11/20 01:11:36;;;;;;;;;;;;;;;9.27;97.57;100143.75;4220418;28;19960;-71
2023/11/20 01:13:38;;;;;;;;;;;;;;;9.28;97.76;100145.41;4220006;28;20027;-71
2023/11/20 01:15:40;;;;;;;;;;;;;;;9.28;97.50;100148.97;4216722;28;20062;-71
2023/11/20 01:17:42;;;;;;;;;;;;;;;9.28;97.68;100134.63;4219771;28;20004;-71
2023/11/20 01:19:45;;;;;;;;;;;;;;;9.27;97.59;100144.59;4218823;28;20018;-71
2023/11/20 01:21:47;;;;;;;;;;;;;;;9.27;97.65;100138.38;4220122;28;20014;-71
2023/11/20 01:23:49;;;;;;;;;;;;;;;9.26;97.64;100145.59;4219502;28;20031;-71
2023/11/20 01:25:53;;;;;;;;;;;;;;;9.27;97.80;100149.97;4220163;28;20376;-71
2023/11/20 01:27:55;;;;;;;;;;;;;;;9.27;97.65;100147.28;4204505;28;20083;-71
2023/11/20 01:29:57;;;;;;;;;;;;;;;9.27;97.72;100141.06;4220852;28;20346;-71
2023/11/20 01:31:59;;;;;;;;;;;;;;;9.27;98.04;100143.75;4218807;28;19958;-70
2023/11/20 01:34:01;;;;;;;;;;;;;;;9.27;97.72;100141.06;4222018;28;20039;-70
2023/11/20 01:36:03;;;;;;;;;;;;;;;9.27;97.69;100143.75;4221056;28;19963;-70
2023/11/20 01:38:04;;;;;;;;;;;;;;;9.27;97.82;100139.19;4220933;28;20011;-70
2023/11/20 01:40:08;;;;;;;;;;;;;;;9.26;97.91;100142.91;4220356;28;20036;-70
2023/11/20 01:42:12;;;;;;;;;;;;;;;9.26;97.92;100147.47;4220413;28;19924;-69
2023/11/20 01:44:14;;;;;;;;;;;;;;;9.25;97.98;100133.16;4219614;28;20014;-70
2023/11/20 01:46:16;;;;;;;;;;;;;;;9.26;97.66;100139.38;4219435;28;19923;-71
2023/11/20 01:48:18;;;;;;;;;;;;;;;9.25;97.69;100135.84;4202284;28;19981;-70
2023/11/20 01:50:21;;;;;;;;;;;;;;;9.24;97.61;100139.56;4221382;28;19971;-70
2023/11/20 01:52:24;;;;;;;;;;;;;;;9.24;97.58;100139.56;4220259;28;19954;-71
2023/11/20 01:54:25;;;;;;;;;;;;;;;9.24;97.86;100136.03;4219404;28;20007;-70
2023/11/20 01:56:27;;;;;;;;;;;;;;;9.23;97.91;100135.19;4221435;28;19923;-70
2023/11/20 01:58:31;;;;;;;;;;;;;;;9.24;97.71;100136.88;4220491;28;20024;-70
2023/11/20 02:00:33;;;;;;;;;;;;;;;9.25;98.06;100135.84;4219176;28;19959;-70
2023/11/20 02:02:37;;;;;;;;;;;;;;;9.26;97.83;100131.28;4202246;28;19959;-70
2023/11/20 02:04:39;;;;;;;;;;;;;;;9.25;97.88;100125.06;4204434;28;20036;-70
2023/11/20 02:06:41;;;;;;;;;;;;;;;9.25;97.90;100124.22;4220988;28;20007;-70
2023/11/20 02:08:43;;;;;;;;;;;;;;;9.26;97.78;100123.22;4221235;28;19967;-70
2023/11/20 02:10:45;;;;;;;;;;;;;;;9.26;97.75;100123.22;4220086;28;20572;-70
2023/11/20 02:12:49;;;;;;;;;;;;;;;9.26;97.86;100124.03;4221109;28;20370;-70
2023/11/20 02:14:52;;;;;;;;;;;;;;;9.26;97.85;100124.03;4219196;28;20364;-70
2023/11/20 02:16:54;;;;;;;;;;;;;;;9.25;97.89;100114.28;4236075;28;19962;-70
2023/11/20 02:18:56;;;;;;;;;;;;;;;9.26;97.63;100121.34;4223374;28;19967;-70
2023/11/20 02:20:58;;;;;;;;;;;;;;;9.27;98.04;100116.81;4223921;28;20023;-70
2023/11/20 02:23:00;;;;;;;;;;;;;;;9.27;97.79;100114.13;4222869;28;20031;-70
2023/11/20 02:25:02;;;;;;;;;;;;;;;9.25;98.02;100097.28;4223963;28;19987;-70
2023/11/20 02:27:09;;;;;;;;;;;;;;;9.26;98.00;100107.88;4222155;28;19967;-70
2023/11/20 02:29:14;;;;;;;;;;;;;;;9.26;98.11;100098.94;4205461;28;20023;-71
2023/11/20 02:31:17;;;;;;;;;;;;;;;9.26;97.98;100090.88;4219789;28;19924;-71
2023/11/20 02:33:19;;;;;;;;;;;;;;;9.24;97.84;100099.13;4220498;28;20015;-71
2023/11/20 02:35:24;;;;;;;;;;;;;;;9.27;97.81;100103.34;4220517;28;20050;-69
2023/11/20 02:37:27;;;;;;;;;;;;;;;9.27;97.98;100103.34;4221186;28;20015;-71
2023/11/20 02:39:28;;;;;;;;;;;;;;;9.27;98.03;100101.47;4221444;27;20636;-71
2023/11/20 02:41:30;;;;;;;;;;;;;;;9.27;98.04;100097.94;4203915;28;19932;-71
2023/11/20 02:43:35;;;;;;;;;;;;;;;9.26;98.29;100090.88;4202746;28;20003;-68
2023/11/20 02:45:37;;;;;;;;;;;;;;;9.25;97.95;100091.88;4220890;28;20047;-73
2023/11/20 02:47:40;;;;;;;;;;;;;;;9.24;98.32;100088.38;4220891;28;20378;-72
2023/11/20 02:49:42;;;;;;;;;;;;;;;9.26;98.35;100085.47;4236732;27;20026;-71
2023/11/20 02:51:44;;;;;;;;;;;;;;;9.25;98.21;100084.66;4219667;28;20071;-71
2023/11/20 02:53:46;;;;;;;;;;;;;;;9.26;98.33;100078.22;4220694;28;20014;-71
2023/11/20 02:55:49;;;;;;;;;;;;;;;9.26;98.29;100089.00;4221017;27;20050;-72
2023/11/20 02:57:52;;;;;;;;;;;;;;;9.25;98.11;100086.50;4221108;28;20020;-72
2023/11/20 02:59:54;;;;;;;;;;;;;;;9.25;98.24;100081.97;4221475;28;20042;-72
2023/11/20 03:01:55;;;;;;;;;;;;;;;9.24;98.17;100074.88;4219657;28;20480;-71
2023/11/20 03:03:58;;;;;;;;;;;;;;;9.22;97.95;100065.34;4219315;27;19964;-71
2023/11/20 03:06:00;;;;;;;;;;;;;;;9.26;98.10;100072.00;4220889;28;20024;-71
2023/11/20 03:08:02;;;;;;;;;;;;;;;9.26;98.27;100070.13;4220631;28;20452;-72
2023/11/20 03:10:05;;;;;;;;;;;;;;;9.25;98.40;100071.19;4221824;28;20018;-70
2023/11/20 03:12:08;;;;;;;;;;;;;;;9.26;98.39;100077.41;4220983;28;20360;-70
2023/11/20 03:14:10;;;;;;;;;;;;;;;9.26;98.37;100074.69;4221265;28;20035;-71
2023/11/20 03:16:13;;;;;;;;;;;;;;;9.25;98.17;100076.56;4221135;28;20011;-70
2023/11/20 03:18:15;;;;;;;;;;;;;;;9.26;98.38;100078.22;4219253;28;20607;-71
2023/11/20 03:20:18;;;;;;;;;;;;;;;9.27;98.32;100071.81;4219594;28;20496;-71
2023/11/20 03:22:21;;;;;;;;;;;;;;;9.27;98.30;100063.75;4221152;28;20051;-71
2023/11/20 03:24:24;;;;;;;;;;;;;;;9.27;98.27;100058.34;4220084;27;20019;-72
2023/11/20 03:26:26;;;;;;;;;;;;;;;9.27;98.44;100058.34;4221053;28;20023;-71
2023/11/20 03:28:28;;;;;;;;;;;;;;;9.27;98.49;100069.13;4219754;27;19931;-68
2023/11/20 03:30:32;;;;;;;;;;;;;;;9.28;98.49;100061.88;4221289;28;20014;-72
2023/11/20 03:32:35;;;;;;;;;;;;;;;9.27;98.56;100061.03;4202793;28;20019;-71
2023/11/20 03:34:36;;;;;;;;;;;;;;;9.26;98.31;100056.66;4220364;28;20022;-71
2023/11/20 03:36:40;;;;;;;;;;;;;;;9.26;98.32;100061.22;4220155;28;19947;-72
2023/11/20 03:38:41;;;;;;;;;;;;;;;9.26;98.43;100055.84;4220984;28;20007;-70
2023/11/20 03:40:43;;;;;;;;;;;;;;;9.27;98.58;100057.53;4220823;27;20034;-71
2023/11/20 03:42:46;;;;;;;;;;;;;;;9.27;98.67;100052.97;4200699;28;20014;-70
2023/11/20 03:44:48;;;;;;;;;;;;;;;9.26;98.40;100050.44;4219692;28;20027;-72
2023/11/20 03:46:50;;;;;;;;;;;;;;;9.26;98.33;100045.06;4220741;28;20453;-71
2023/11/20 03:48:53;;;;;;;;;;;;;;;9.26;98.65;100045.88;4220023;28;19931;-72
2023/11/20 03:50:55;;;;;;;;;;;;;;;9.26;98.40;100053.97;4220406;28;20018;-70
2023/11/20 03:52:58;;;;;;;;;;;;;;;9.27;98.50;100060.22;4218048;28;20026;-72
2023/11/20 03:55:00;;;;;;;;;;;;;;;9.26;98.60;100059.38;4213196;28;20015;-71
2023/11/20 03:57:03;;;;;;;;;;;;;;;9.27;98.42;100055.66;4220811;28;20015;-71
2023/11/20 03:59:05;;;;;;;;;;;;;;;9.28;98.57;100048.41;4220434;28;20011;-70
2023/11/20 04:01:07;;;;;;;;;;;;;;;9.27;98.53;100046.75;4219586;28;20018;-69
2023/11/20 04:03:09;;;;;;;;;;;;;;;9.28;98.29;100043.00;4201925;28;20011;-69
2023/11/20 04:05:10;;;;;;;;;;;;;;;9.28;98.38;100043.88;4220515;28;20015;-71
2023/11/20 04:07:14;;;;;;;;;;;;;;;9.28;98.32;100045.72;4219013;28;20006;-71
2023/11/20 04:09:19;;;;;;;;;;;;;;;9.28;98.35;100037.63;4220001;28;19932;-70
2023/11/20 04:11:20;;;;;;;;;;;;;;;9.27;98.35;100031.41;4220034;28;20165;-72
2023/11/20 04:13:22;;;;;;;;;;;;;;;9.29;98.27;100031.22;4220241;28;20384;-72
2023/11/20 04:15:24;;;;;;;;;;;;;;;9.29;98.65;100028.53;4201349;28;20478;-71
2023/11/20 04:17:26;;;;;;;;;;;;;;;9.28;98.63;100032.22;4218061;28;20011;-70
2023/11/20 04:19:28;;;;;;;;;;;;;;;9.28;98.51;100032.22;4217824;28;20018;-71
2023/11/20 04:21:31;;;;;;;;;;;;;;;9.27;98.68;100025.19;4220171;28;20027;-71
2023/11/20 04:23:33;;;;;;;;;;;;;;;9.28;98.44;100026.84;4201270;28;20003;-72
2023/11/20 04:25:36;;;;;;;;;;;;;;;9.29;98.65;100032.03;4216032;28;20003;-71
2023/11/20 04:27:38;;;;;;;;;;;;;;;9.30;98.71;100027.50;4220073;28;20489;-72
2023/11/20 04:29:40;;;;;;;;;;;;;;;9.29;98.64;100029.34;4219383;28;20313;-71
2023/11/20 04:31:41;;;;;;;;;;;;;;;9.28;98.43;100019.63;4218294;28;20003;-72
2023/11/20 04:33:43;;;;;;;;;;;;;;;9.29;98.35;100023.97;4218871;27;20030;-70
2023/11/20 04:35:46;;;;;;;;;;;;;;;9.29;98.71;100018.56;4219795;28;20026;-72
2023/11/20 04:37:47;;;;;;;;;;;;;;;9.29;98.49;100015.88;4216948;28;20023;-71
2023/11/20 04:39:52;;;;;;;;;;;;;;;9.29;98.77;100012.34;4219520;28;20031;-71
2023/11/20 04:41:55;;;;;;;;;;;;;;;9.29;98.59;100013.19;4218633;28;20018;-71
2023/11/20 04:43:57;;;;;;;;;;;;;;;9.29;98.50;100013.19;4218796;28;20038;-72
2023/11/20 04:46:00;;;;;;;;;;;;;;;9.29;98.46;100012.34;4219484;28;20006;-70
2023/11/20 04:48:03;;;;;;;;;;;;;;;9.28;98.82;100008.84;4218600;28;19982;-72
2023/11/20 04:50:06;;;;;;;;;;;;;;;9.28;98.56;100014.22;4217077;28;20490;-71
2023/11/20 04:52:08;;;;;;;;;;;;;;;9.28;98.50;100000.75;4219993;28;20034;-71
2023/11/20 04:54:11;;;;;;;;;;;;;;;9.28;98.78;100006.16;4219300;28;20026;-72
2023/11/20 04:56:12;;;;;;;;;;;;;;;9.28;98.79;100007.97;4219110;28;20011;-71
2023/11/20 04:58:21;;;;;;;;;;;;;;;9.30;98.47;99993.31;4219670;28;20043;-72
2023/11/20 05:00:25;;;;;;;;;;;;;;;9.28;98.84;99992.66;4218338;28;20465;-71
2023/11/20 05:02:28;;;;;;;;;;;;;;;9.30;98.37;99989.78;4217938;28;20019;-68
2023/11/20 05:04:30;;;;;;;;;;;;;;;9.29;98.64;99986.22;4219176;28;20030;-70
2023/11/20 05:06:32;;;;;;;;;;;;;;;9.29;98.83;99985.41;4219346;28;20519;-71
2023/11/20 05:08:32;;;;;;;;;;;;;;;9.29;98.62;99980.03;4219356;28;20018;-69
2023/11/20 05:10:35;;;;;;;;;;;;;;;9.28;98.65;99981.88;4218800;28;19928;-72
2023/11/20 05:12:36;;;;;;;;;;;;;;;9.27;98.72;99974.81;4219573;28;20421;-72
2023/11/20 05:14:40;;;;;;;;;;;;;;;9.27;98.29;99980.22;4219588;28;20035;-71
2023/11/20 05:16:41;;;;;;;;;;;;;;;9.27;98.36;99982.06;4218971;28;20496;-70
2023/11/20 05:18:43;;;;;;;;;;;;;;;9.27;98.40;99980.22;4218308;28;20015;-69
2023/11/20 05:20:45;;;;;;;;;;;;;;;9.28;98.45;99978.34;4217546;28;20019;-71
2023/11/20 05:22:47;;;;;;;;;;;;;;;9.28;98.60;99981.88;4218795;28;20030;-70
2023/11/20 05:24:48;;;;;;;;;;;;;;;9.28;98.28;99979.19;4219768;28;20023;-72
2023/11/20 05:26:50;;;;;;;;;;;;;;;9.29;98.24;99988.09;4219068;28;20050;-72
2023/11/20 05:28:54;;;;;;;;;;;;;;;9.29;98.41;99990.81;4216489;28;20019;-71
2023/11/20 05:30:58;;;;;;;;;;;;;;;9.30;98.25;99985.22;4219329;28;20018;-70
2023/11/20 05:33:00;;;;;;;;;;;;;;;9.29;98.29;99996.19;4217284;28;20046;-69
2023/11/20 05:35:02;;;;;;;;;;;;;;;9.29;98.43;99990.81;4218867;28;20026;-70
2023/11/20 05:37:04;;;;;;;;;;;;;;;9.28;98.62;99987.28;4216564;28;20015;-70
2023/11/20 05:39:08;;;;;;;;;;;;;;;9.28;98.55;99989.97;4218342;28;20355;-69
2023/11/20 05:41:10;;;;;;;;;;;;;;;9.27;98.40;99984.78;4218488;28;20027;-72
2023/11/20 05:43:12;;;;;;;;;;;;;;;9.25;98.78;99979.56;4219128;28;20404;-69
2023/11/20 05:45:15;;;;;;;;;;;;;;;9.30;98.42;99987.91;4219185;28;20099;-69
2023/11/20 05:47:18;;;;;;;;;;;;;;;9.30;98.34;99987.91;4219863;28;20015;-69
2023/11/20 05:49:20;;;;;;;;;;;;;;;9.30;98.50;99993.31;4218535;28;20423;-71
2023/11/20 05:51:21;;;;;;;;;;;;;;;9.30;98.32;99993.31;4219172;28;19962;-71
2023/11/20 05:53:23;;;;;;;;;;;;;;;9.31;98.31;99988.75;4222031;28;20022;-70
2023/11/20 05:55:29;;;;;;;;;;;;;;;9.31;98.28;99986.06;4222615;28;20019;-69
2023/11/20 05:57:31;;;;;;;;;;;;;;;9.31;98.34;99995.00;4221526;28;20022;-70
2023/11/20 05:59:33;;;;;;;;;;;;;;;9.32;98.48;99993.13;4221805;27;20023;-71
2023/11/20 06:01:38;;;;;;;;;;;;;;;9.30;98.51;99990.63;4220444;28;20030;-70
2023/11/20 06:03:41;;;;;;;;;;;;;;;9.31;98.58;99991.44;4221013;28;20454;-69
2023/11/20 06:05:44;;;;;;;;;;;;;;;9.31;98.63;99994.13;4221195;28;20014;-70
2023/11/20 06:07:46;;;;;;;;;;;;;;;9.31;98.42;99991.44;4221942;28;20010;-70
2023/11/20 06:09:48;;;;;;;;;;;;;;;9.31;98.36;99986.06;4221454;28;20437;-70
2023/11/20 06:11:50;;;;;;;;;;;;;;;9.31;98.31;100000.38;4221838;28;20332;-70
2023/11/20 06:13:52;;;;;;;;;;;;;;;9.32;98.63;99995.81;4221855;28;20034;-70
2023/11/20 06:15:54;;;;;;;;;;;;;;;9.31;98.40;99991.44;4222068;28;20035;-69
2023/11/20 06:17:56;;;;;;;;;;;;;;;9.31;98.62;100000.38;4221892;28;20024;-71
2023/11/20 06:20:00;;;;;;;;;;;;;;;9.30;98.37;99996.00;4221125;28;20022;-70
2023/11/20 06:22:02;;;;;;;;;;;;;;;9.30;98.26;100004.09;4221090;28;20365;-70
2023/11/20 06:24:04;;;;;;;;;;;;;;;9.30;98.63;100004.09;4221037;28;20373;-68
2023/11/20 06:26:06;;;;;;;;;;;;;;;9.29;98.45;100002.41;4221796;28;20018;-70
2023/11/20 06:28:08;;;;;;;;;;;;;;;9.31;98.69;100013.84;4222133;28;20039;-69
2023/11/20 06:30:11;;;;;;;;;;;;;;;9.32;98.28;100010.13;4220581;28;20035;-70
2023/11/20 06:32:13;;;;;;;;;;;;;;;9.33;98.39;100016.38;4221842;28;19986;-70
2023/11/20 06:34:15;;;;;;;;;;;;;;;9.32;98.58;100011.97;4220775;28;20469;-70
2023/11/20 06:36:19;;;;;;;;;;;;;;;9.31;98.31;100013.84;4222241;28;20019;-69
2023/11/20 06:38:21;;;;;;;;;;;;;;;9.32;98.38;100012.81;4221998;28;20059;-69
2023/11/20 06:40:23;;;;;;;;;;;;;;;9.31;98.35;100019.25;4220514;28;20018;-69
2023/11/20 06:42:24;;;;;;;;;;;;;;;9.31;98.35;100015.69;4220432;28;20010;-70
2023/11/20 06:44:26;;;;;;;;;;;;;;;9.31;98.69;100015.69;4221758;28;20462;-70
2023/11/20 06:46:27;;;;;;;;;;;;;;;9.31;98.38;100013.00;4221086;28;20353;-70
2023/11/20 06:48:29;;;;;;;;;;;;;;;9.31;98.73;100018.38;4221357;28;20018;-70
2023/11/20 06:50:32;;;;;;;;;;;;;;;9.32;98.30;100023.59;4220618;28;20019;-69
2023/11/20 06:52:35;;;;;;;;;;;;;;;9.32;98.25;100023.59;4221621;28;20018;-70
2023/11/20 06:54:36;;;;;;;;;;;;;;;9.33;98.35;100027.97;4220783;28;20031;-69
2023/11/20 06:56:38;;;;;;;;;;;;;;;9.31;98.09;100027.31;4221545;27;20385;-70
2023/11/20 06:58:39;;;;;;;;;;;;;;;9.33;98.24;100024.44;4218843;28;20062;-68
2023/11/20 07:00:42;;;;;;;;;;;;;;;9.34;98.53;100028.78;4216315;28;19988;-67
2023/11/20 07:02:44;;;;;;;;;;;;;;;9.34;98.34;100029.66;4217666;28;20598;-70
2023/11/20 07:04:46;;;;;;;;;;;;;;;9.34;98.33;100031.50;4218539;28;20023;-70
2023/11/20 07:06:49;;;;;;;;;;;;;;;9.35;98.51;100041.25;4218596;28;20012;-68
2023/11/20 07:08:54;;;;;;;;;;;;;;;9.35;98.47;100036.69;4219850;28;20027;-68
2023/11/20 07:10:57;;;;;;;;;;;;;;;9.35;98.70;100041.25;4218974;28;20504;-68
2023/11/20 07:12:59;;;;;;;;;;;;;;;9.34;98.61;100040.44;4220310;28;19966;-70
2023/11/20 07:15:01;;;;;;;;;;;;;;;9.34;98.71;100036.88;4221075;28;20023;-71
2023/11/20 07:17:03;;;;;;;;;;;;;;;9.34;98.53;100045.81;4220341;28;20015;-70
2023/11/20 07:19:04;;;;;;;;;;;;;;;9.35;98.60;100046.66;4221267;28;20035;-70
2023/11/20 07:21:06;;;;;;;;;;;;;;;9.35;98.48;100046.66;4220257;28;20027;-71
2023/11/20 07:23:08;;;;;;;;;;;;;;;9.35;98.60;100042.09;4220455;28;20023;-70
2023/11/20 07:25:12;;;;;;;;;;;;;;;9.35;98.67;100044.78;4219598;28;20383;-70
2023/11/20 07:27:14;;;;;;;;;;;;;;;9.35;98.49;100047.47;4220844;28;20065;-68
2023/11/20 07:29:16;;;;;;;;;;;;;;;9.34;98.33;100050.34;4220332;28;20018;-68
2023/11/20 07:31:25;;;;;;;;;;;;;;;9.35;98.67;100049.34;4220240;28;20018;-70
2023/11/20 07:33:27;;;;;;;;;;;;;;;9.34;98.76;100050.34;4220359;28;19924;-70
2023/11/20 07:35:28;;;;;;;;;;;;;;;9.34;98.60;100053.06;4220852;28;20018;-70
2023/11/20 07:37:31;;;;;;;;;;;;;;;9.34;98.49;100053.91;4220595;28;20018;-69
2023/11/20 07:39:32;;;;;;;;;;;;;;;9.35;98.61;100054.72;4220086;28;20012;-70
2023/11/20 07:41:36;;;;;;;;;;;;;;;9.35;98.42;100054.72;4219094;28;20034;-70
2023/11/20 07:43:38;;;;;;;;;;;;;;;9.35;98.53;100054.72;4220297;28;20019;-70
2023/11/20 07:45:40;;;;;;;;;;;;;;;9.36;98.45;100057.25;4219832;28;20021;-70
2023/11/20 07:47:42;;;;;;;;;;;;;;;9.36;98.72;100056.41;4221181;28;20014;-69
2023/11/20 07:49:44;;;;;;;;;;;;;;;9.36;98.43;100051.84;4219953;28;20019;-68
2023/11/20 07:51:46;;;;;;;;;;;;;;;9.37;98.42;100050.84;4220089;28;20027;-68
2023/11/20 07:53:49;;;;;;;;;;;;;;;9.37;98.50;100056.22;4220256;28;19927;-69
2023/11/20 07:55:51;;;;;;;;;;;;;;;9.38;98.76;100046.28;4219650;28;20425;-70
2023/11/20 07:57:54;;;;;;;;;;;;;;;9.39;98.73;100053.34;4220007;28;20354;-70
2023/11/20 07:59:55;;;;;;;;;;;;;;;9.40;98.83;100054.19;4220318;28;20014;-70
2023/11/20 08:01:57;;;;;;;;;;;;;;;9.40;98.74;100057.69;4219998;28;19928;-71
2023/11/20 08:03:59;;;;;;;;;;;;;;;9.41;98.51;100061.25;4220047;28;20034;-67
2023/11/20 08:06:01;;;;;;;;;;;;;;;9.42;98.77;100054.81;4219326;28;20042;-70
2023/11/20 08:08:03;;;;;;;;;;;;;;;9.42;98.92;100068.28;4219957;28;20011;-70
2023/11/20 08:10:09;;;;;;;;;;;;;;;9.42;98.89;100061.06;4220306;28;20015;-71
2023/11/20 08:12:11;;;;;;;;;;;;;;;9.42;98.74;100055.69;4219713;28;20010;-71
2023/11/20 08:14:15;;;;;;;;;;;;;;;9.43;98.66;100059.19;4219165;28;19931;-71
2023/11/20 08:16:17;;;;;;;;;;;;;;;9.43;98.66;100059.19;4219116;28;20003;-70
2023/11/20 08:18:19;;;;;;;;;;;;;;;9.43;98.82;100061.88;4220451;28;20039;-70
2023/11/20 08:20:21;;;;;;;;;;;;;;;9.43;98.91;100069.97;4219707;28;20026;-69
2023/11/20 08:22:23;;;;;;;;;;;;;;;9.43;98.90;100067.28;4218423;28;20636;-70
2023/11/20 08:24:25;;;;;;;;;;;;;;;9.43;98.58;100065.41;4219830;28;20034;-70
2023/11/20 08:26:27;;;;;;;;;;;;;;;9.45;98.94;100070.63;4219757;28;20019;-71
2023/11/20 08:28:29;;;;;;;;;;;;;;;9.44;98.67;100071.66;4218803;28;20019;-70
2023/11/20 08:30:34;;;;;;;;;;;;;;;9.45;98.98;100073.31;4219913;28;20036;-70
2023/11/20 08:32:36;;;;;;;;;;;;;;;9.45;98.99;100076.00;4219278;28;20019;-68
2023/11/20 08:34:38;;;;;;;;;;;;;;;9.46;98.91;100072.31;4220128;28;20022;-69
2023/11/20 08:36:39;;;;;;;;;;;;;;;9.46;98.66;100073.13;4217772;28;20015;-70
2023/11/20 08:38:41;;;;;;;;;;;;;;;9.45;98.98;100070.63;4217905;28;20023;-70
2023/11/20 08:40:43;;;;;;;;;;;;;;;9.46;98.86;100069.59;4219759;28;20030;-70
2023/11/20 08:42:46;;;;;;;;;;;;;;;9.46;98.85;100078.53;4219570;28;20019;-70
2023/11/20 08:44:49;;;;;;;;;;;;;;;9.46;98.73;100070.44;4219248;28;20007;-70
2023/11/20 08:46:53;;;;;;;;;;;;;;;9.47;98.91;100072.13;4219682;28;20473;-71
2023/11/20 08:48:54;;;;;;;;;;;;;;;9.48;98.59;100073.81;4219466;28;20015;-70
2023/11/20 08:50:57;;;;;;;;;;;;;;;9.48;98.63;100073.81;4219172;28;20018;-70
2023/11/20 08:52:59;;;;;;;;;;;;;;;9.49;98.49;100074.63;4218319;28;20450;-70
2023/11/20 08:55:01;;;;;;;;;;;;;;;9.49;98.57;100072.75;4217664;28;19928;-70
2023/11/20 08:57:05;;;;;;;;;;;;;;;9.49;98.51;100077.31;4219089;28;20007;-70
2023/11/20 08:59:07;;;;;;;;;;;;;;;9.50;98.71;100084.41;4219480;28;20044;-70
2023/11/20 09:01:09;;;;;;;;;;;;;;;9.50;98.60;100074.44;4217887;28;20020;-69
2023/11/20 09:03:13;;;;;;;;;;;;;;;9.51;98.44;100080.66;4218678;28;20027;-70
2023/11/20 09:05:15;;;;;;;;;;;;;;;9.52;98.69;100082.34;4219397;28;20035;-70
2023/11/20 09:07:17;;;;;;;;;;;;;;;9.52;98.35;100080.47;4219786;28;20019;-69
2023/11/20 09:09:19;;;;;;;;;;;;;;;9.53;98.40;100084.84;4218996;28;20014;-69
2023/11/20 09:11:21;;;;;;;;;;;;;;;9.53;98.37;100084.84;4218859;28;20015;-70
2023/11/20 09:13:23;;;;;;;;;;;;;;;9.55;98.74;100076.56;4219219;28;20334;-70
2023/11/20 09:15:26;;;;;;;;;;;;;;;9.54;98.52;100074.91;4219112;28;19940;-70
2023/11/20 09:17:29;;;;;;;;;;;;;;;9.55;98.74;100074.72;4219258;28;20051;-70
2023/11/20 09:19:32;;;;;;;;;;;;;;;9.55;98.36;100077.41;4218726;28;20450;-71
2023/11/20 09:21:34;;;;;;;;;;;;;;;9.57;98.26;100082.59;4219561;28;20019;-71
2023/11/20 09:23:35;;;;;;;;;;;;;;;9.57;98.43;100083.44;4218766;28;20018;-70
2023/11/20 09:25:39;;;;;;;;;;;;;;;9.57;98.64;100074.53;4219118;28;20366;-69
2023/11/20 09:27:41;;;;;;;;;;;;;;;9.59;98.44;100082.44;4222363;28;20039;-71
2023/11/20 09:29:43;;;;;;;;;;;;;;;9.58;98.26;100078.91;4222545;28;20016;-70
2023/11/20 09:31:47;;;;;;;;;;;;;;;9.56;98.46;100067.44;4221257;28;20022;-70
2023/11/20 09:33:50;;;;;;;;;;;;;;;9.60;98.46;100084.09;4222240;28;20019;-71
2023/11/20 09:35:54;;;;;;;;;;;;;;;9.60;98.33;100090.31;4222547;28;19924;-70
2023/11/20 09:37:55;;;;;;;;;;;;;;;9.60;98.55;100084.94;4222092;28;20030;-70
2023/11/20 09:39:58;;;;;;;;;;;;;;;9.63;98.36;100086.44;4221610;28;19928;-70
2023/11/20 09:42:00;;;;;;;;;;;;;;;9.62;98.56;100080.19;4222273;28;20007;-70
2023/11/20 09:44:02;;;;;;;;;;;;;;;9.63;98.53;100081.88;4222388;28;20011;-70
2023/11/20 09:46:06;;;;;;;;;;;;;;;9.65;98.35;100079.81;4222750;28;20482;-70
2023/11/20 09:48:08;;;;;;;;;;;;;;;9.64;98.25;100086.25;4221849;28;20047;-69
2023/11/20 09:50:11;;;;;;;;;;;;;;;9.66;98.52;100089.59;4221936;28;20011;-70
2023/11/20 09:52:14;;;;;;;;;;;;;;;9.66;98.43;100080.66;4221099;28;20019;-70
2023/11/20 09:54:16;;;;;;;;;;;;;;;9.67;98.49;100085.88;4222277;28;20028;-70
2023/11/20 09:56:19;;;;;;;;;;;;;;;9.68;98.17;100086.69;4220215;28;19928;-71
2023/11/20 09:58:21;;;;;;;;;;;;;;;9.67;98.35;100083.19;4221976;28;20026;-69
2023/11/20 10:00:24;;;;;;;;;;;;;;;9.68;98.15;100082.13;4221129;28;20019;-70
2023/11/20 10:02:27;;;;;;;;;;;;;;;9.68;98.40;100084.00;4203510;28;20035;-70
2023/11/20 10:04:30;;;;;;;;;;;;;;;9.69;97.99;100080.28;4222118;28;20022;-70
2023/11/20 10:06:33;;;;;;;;;;;;;;;9.69;98.23;100081.13;4222592;28;20019;-70
2023/11/20 10:08:37;;;;;;;;;;;;;;;9.70;98.17;100074.72;4222479;28;20015;-70
2023/11/20 10:10:39;;;;;;;;;;;;;;;9.71;98.43;100078.22;4222280;28;20018;-69
2023/11/20 10:12:41;;;;;;;;;;;;;;;9.70;98.18;100085.50;4221673;28;20019;-71
2023/11/20 10:14:43;;;;;;;;;;;;;;;9.72;98.33;100079.91;4221596;28;20022;-70
2023/11/20 10:16:46;;;;;;;;;;;;;;;9.72;98.30;100072.66;4222248;28;19931;-69
2023/11/20 10:18:48;;;;;;;;;;;;;;;9.72;98.43;100071.81;4221338;28;20027;-70
2023/11/20 10:20:50;;;;;;;;;;;;;;;9.72;98.15;100069.13;4221791;28;20018;-70
2023/11/20 10:22:51;;;;;;;;;;;;;;;9.71;98.11;100070.97;4221616;28;20011;-70
2023/11/20 10:24:54;;;;;;;;;;;;;;;9.73;98.06;100073.47;4222336;28;19934;-69
2023/11/20 10:26:56;;;;;;;;;;;;;;;9.72;98.16;100075.34;4221075;28;20011;-70
2023/11/20 10:28:58;;;;;;;;;;;;;;;9.73;98.29;100068.09;4221701;28;19931;-71
2023/11/20 10:31:00;;;;;;;;;;;;;;;9.73;98.03;100068.09;4220855;28;20014;-69
2023/11/20 10:33:02;;;;;;;;;;;;;;;9.73;98.19;100074.34;4221058;28;20022;-71
2023/11/20 10:35:14;;;;;;;;;;;;;;;9.74;97.88;100069.78;4220252;28;20443;-70
2023/11/20 10:37:16;;;;;;;;;;;;;;;9.75;98.17;100076.84;4220734;28;19936;-69